首页
METAR-TAF:

METAR-TAF

机场 :

伊斯兰堡, 巴基斯坦

贝娜齐尔·布托国际机场

纬度: 33-37N, 经度: 073-06E, 海拔: 507米

当前天气观测

该预报发布于12分钟前的05:30 UTC
风速8节,风向西南
温度 16°C
湿度 72%
气压 1023 hPa
能見度: 5000

METAR: OPRN 250530Z 23008KT 5000 NSC 16/11 Q1023 NOSIG RMK A3021

时间: 10:42 (05:42 UTC)

预报

该预报发布于8小时和12分钟前的21:30 UTC
预报有效从25日的 00点(UTC)到 26日的 06点(UTC)
风速10节,风向
能見度: 4000
多云层高于7000英尺
短暂存在
从 25日的 01点(UTC)到 25日的 03点(UTC)
能見度: 0600
成为
从 25日的 03点(UTC)到 25日的 05点(UTC)
能見度: 3000
轻雾
成为
从 25日的 06点(UTC)到 25日的 08点(UTC)
能見度: 5000
成为
从 25日的 14点(UTC)到 25日的 16点(UTC)
能見度: 4000
短暂存在
从 26日的 02点(UTC)到 26日的 04点(UTC)
能見度: 2500
轻雾
成为
从 26日的 05点(UTC)到 26日的 06点(UTC)
能見度: 5000

TAF: OPRN 242130Z 2500/2606 09010KT 4000 HZ BKN070 TEMPO 2501/2503 0600 FG BECMG 2503/2505 3000 BR NSC BECMG 2506/2508 5000 HZ BECMG 2514/2516 4000 HZ TEMPO 2602/2604 2500 BR BECMG 2605/2606 5000 HZ NSC

超过4000个机场的气象观测和天气预报(METAR&TAF报告)。

可查询的气象台以黄色和红色小点在地图上表示。

将鼠标移到小点上方,可查看气象台名称。

然后点击查看天气观测和预报。

如需切换地图:点击带黑十字的绿色按钮放大地图;点击带横线的绿色按钮缩小地图;或者点击绿色箭头查看邻近地区的地图。


METAR-TAF: